<?xml version="1.0" encoding="UTF-8" standalone="no" ?>
<gpx xmlns="http://www.topografix.com/GPX/1/1" xmlns:xsi="http://www.w3.org/2001/XMLSchema-instance" xsi:schemaLocation="http://www.topografix.com/GPX/1/1 http://www.topografix.com/GPX/1/1/gpx.xsd" version="1.1" creator="VisuGPX - https://www.visugpx.com">
  <metadata>
    <name>Redon_Chateaulin</name>
    <desc><![CDATA[Randonnée cyclotouriste de Redon à Châteaulin par le chemin de halage du canal de Nantes à Brest avec quelques échappées vers Rostrenen, Carhaix et Pleyben.]]></desc>
  </metadata>
  <trk>
    <name><![CDATA[ACTIVE LOG 003]]></name>
    <trkseg>
      <trkpt lat="47.80829" lon="-2.38097">
        <ele>10.711791992188</ele>
        <time>2012-04-15T12:39:02Z</time>
      </trkpt>
      <trkpt lat="47.80836" lon="-2.38101">
        <ele>9.7506103515625</ele>
        <time>2012-04-15T12:39:53Z</time>
      </trkpt>
      <trkpt lat="47.8084" lon="-2.38095">
        <ele>12.634399414062</ele>
        <time>2012-04-15T12:46:09Z</time>
      </trkpt>
      <trkpt lat="47.8084" lon="-2.38091">
        <ele>12.15380859375</ele>
        <time>2012-04-15T12:46:25Z</time>
      </trkpt>
      <trkpt lat="47.80847" lon="-2.38046">
        <ele>10.711791992188</ele>
        <time>2012-04-15T12:46:40Z</time>
      </trkpt>
      <trkpt lat="47.80854" lon="-2.38044">
        <ele>10.231201171875</ele>
        <time>2012-04-15T12:46:44Z</time>
      </trkpt>
      <trkpt lat="47.80882" lon="-2.3803">
        <ele>6.866455078125</ele>
        <time>2012-04-15T12:46:58Z</time>
      </trkpt>
      <trkpt lat="47.80912" lon="-2.3806">
        <ele>9.7506103515625</ele>
        <time>2012-04-15T12:47:12Z</time>
      </trkpt>
      <trkpt lat="47.80964" lon="-2.38094">
        <ele>10.231201171875</ele>
        <time>2012-04-15T12:47:33Z</time>
      </trkpt>
      <trkpt lat="47.80994" lon="-2.38111">
        <ele>10.231201171875</ele>
        <time>2012-04-15T12:47:47Z</time>
      </trkpt>
      <trkpt lat="47.81035" lon="-2.38142">
        <ele>11.192504882812</ele>
        <time>2012-04-15T12:48:01Z</time>
      </trkpt>
      <trkpt lat="47.81038" lon="-2.38144">
        <ele>11.192504882812</ele>
        <time>2012-04-15T12:48:06Z</time>
      </trkpt>
      <trkpt lat="47.81045" lon="-2.3815">
        <ele>10.231201171875</ele>
        <time>2012-04-15T12:48:12Z</time>
      </trkpt>
      <trkpt lat="47.81063" lon="-2.38166">
        <ele>11.192504882812</ele>
        <time>2012-04-15T12:48:21Z</time>
      </trkpt>
      <trkpt lat="47.81085" lon="-2.38185">
        <ele>8.7891845703125</ele>
        <time>2012-04-15T12:48:30Z</time>
      </trkpt>
      <trkpt lat="47.8111" lon="-2.38207">
        <ele>6.866455078125</ele>
        <time>2012-04-15T12:48:39Z</time>
      </trkpt>
      <trkpt lat="47.81143" lon="-2.38241">
        <ele>6.3858642578125</ele>
        <time>2012-04-15T12:48:50Z</time>
      </trkpt>
      <trkpt lat="47.81168" lon="-2.38266">
        <ele>3.982666015625</ele>
        <time>2012-04-15T12:49:00Z</time>
      </trkpt>
      <trkpt lat="47.81168" lon="-2.38266">
        <ele>5.9052734375</ele>
        <time>2012-04-15T12:49:04Z</time>
      </trkpt>
      <trkpt lat="47.81194" lon="-2.38296">
        <ele>9.2698974609375</ele>
        <time>2012-04-15T12:49:16Z</time>
      </trkpt>
      <trkpt lat="47.81223" lon="-2.38328">
        <ele>9.7506103515625</ele>
        <time>2012-04-15T12:49:33Z</time>
      </trkpt>
      <trkpt lat="47.81229" lon="-2.38335">
        <ele>10.231201171875</ele>
        <time>2012-04-15T12:49:38Z</time>
      </trkpt>
      <trkpt lat="47.81229" lon="-2.38335">
        <ele>9.7506103515625</ele>
        <time>2012-04-15T12:49:44Z</time>
      </trkpt>
      <trkpt lat="47.81229" lon="-2.38335">
        <ele>9.2698974609375</ele>
        <time>2012-04-15T12:49:56Z</time>
      </trkpt>
      <trkpt lat="47.81316" lon="-2.38443">
        <ele>8.30859375</ele>
        <time>2012-04-15T12:50:15Z</time>
      </trkpt>
      <trkpt lat="47.81342" lon="-2.38475">
        <ele>8.30859375</ele>
        <time>2012-04-15T12:50:25Z</time>
      </trkpt>
      <trkpt lat="47.81372" lon="-2.38513">
        <ele>8.7891845703125</ele>
        <time>2012-04-15T12:50:37Z</time>
      </trkpt>
      <trkpt lat="47.81394" lon="-2.38541">
        <ele>8.30859375</ele>
        <time>2012-04-15T12:50:45Z</time>
      </trkpt>
      <trkpt lat="47.81427" lon="-2.38586">
        <ele>6.866455078125</ele>
        <time>2012-04-15T12:50:55Z</time>
      </trkpt>
      <trkpt lat="47.81461" lon="-2.38632">
        <ele>7.34716796875</ele>
        <time>2012-04-15T12:51:07Z</time>
      </trkpt>
      <trkpt lat="47.81496" lon="-2.38675">
        <ele>8.30859375</ele>
        <time>2012-04-15T12:51:19Z</time>
      </trkpt>
      <trkpt lat="47.81549" lon="-2.38744">
        <ele>8.30859375</ele>
        <time>2012-04-15T12:51:37Z</time>
      </trkpt>
      <trkpt lat="47.81583" lon="-2.38788">
        <ele>7.34716796875</ele>
        <time>2012-04-15T12:51:49Z</time>
      </trkpt>
      <trkpt lat="47.81628" lon="-2.38847">
        <ele>8.30859375</ele>
        <time>2012-04-15T12:52:05Z</time>
      </trkpt>
      <trkpt lat="47.81666" lon="-2.38898">
        <ele>9.2698974609375</ele>
        <time>2012-04-15T12:52:19Z</time>
      </trkpt>
      <trkpt lat="47.81704" lon="-2.38948">
        <ele>11.192504882812</ele>
        <time>2012-04-15T12:52:34Z</time>
      </trkpt>
      <trkpt lat="47.81736" lon="-2.38987">
        <ele>10.231201171875</ele>
        <time>2012-04-15T12:52:46Z</time>
      </trkpt>
      <trkpt lat="47.81786" lon="-2.3905">
        <ele>10.231201171875</ele>
        <time>2012-04-15T12:53:03Z</time>
      </trkpt>
      <trkpt lat="47.81819" lon="-2.39095">
        <ele>9.2698974609375</ele>
        <time>2012-04-15T12:53:16Z</time>
      </trkpt>
      <trkpt lat="47.81848" lon="-2.39132">
        <ele>10.711791992188</ele>
        <time>2012-04-15T12:53:29Z</time>
      </trkpt>
      <trkpt lat="47.8188" lon="-2.39173">
        <ele>10.711791992188</ele>
        <time>2012-04-15T12:53:41Z</time>
      </trkpt>
      <trkpt lat="47.81908" lon="-2.39211">
        <ele>9.7506103515625</ele>
        <time>2012-04-15T12:53:51Z</time>
      </trkpt>
      <trkpt lat="47.81946" lon="-2.39256">
        <ele>10.231201171875</ele>
        <time>2012-04-15T12:54:05Z</time>
      </trkpt>
      <trkpt lat="47.81965" lon="-2.39282">
        <ele>10.231201171875</ele>
        <time>2012-04-15T12:54:16Z</time>
      </trkpt>
      <trkpt lat="47.82028" lon="-2.39367">
        <ele>11.673217773438</ele>
        <time>2012-04-15T12:54:40Z</time>
      </trkpt>
      <trkpt lat="47.82099" lon="-2.39459">
        <ele>12.634399414062</ele>
        <time>2012-04-15T12:55:06Z</time>
      </trkpt>
      <trkpt lat="47.82193" lon="-2.39579">
        <ele>11.673217773438</ele>
        <time>2012-04-15T12:55:38Z</time>
      </trkpt>
      <trkpt lat="47.82281" lon="-2.39693">
        <ele>12.15380859375</ele>
        <time>2012-04-15T12:56:09Z</time>
      </trkpt>
      <trkpt lat="47.82357" lon="-2.39791">
        <ele>11.673217773438</ele>
        <time>2012-04-15T12:56:36Z</time>
      </trkpt>
      <trkpt lat="47.82386" lon="-2.39829">
        <ele>11.192504882812</ele>
        <time>2012-04-15T12:56:48Z</time>
      </trkpt>
      <trkpt lat="47.82387" lon="-2.39835">
        <ele>10.711791992188</ele>
        <time>2012-04-15T12:56:50Z</time>
      </trkpt>
      <trkpt lat="47.82427" lon="-2.39887">
        <ele>13.115112304688</ele>
        <time>2012-04-15T12:57:09Z</time>
      </trkpt>
      <trkpt lat="47.82464" lon="-2.39932">
        <ele>12.634399414062</ele>
        <time>2012-04-15T12:57:24Z</time>
      </trkpt>
      <trkpt lat="47.82474" lon="-2.39945">
        <ele>12.15380859375</ele>
        <time>2012-04-15T12:57:29Z</time>
      </trkpt>
      <trkpt lat="47.82475" lon="-2.3995">
        <ele>12.15380859375</ele>
        <time>2012-04-15T12:57:31Z</time>
      </trkpt>
      <trkpt lat="47.82497" lon="-2.39989">
        <ele>11.673217773438</ele>
        <time>2012-04-15T12:57:43Z</time>
      </trkpt>
      <trkpt lat="47.82507" lon="-2.40056">
        <ele>11.192504882812</ele>
        <time>2012-04-15T12:57:55Z</time>
      </trkpt>
      <trkpt lat="47.8257" lon="-2.40183">
        <ele>10.711791992188</ele>
        <time>2012-04-15T12:58:25Z</time>
      </trkpt>
      <trkpt lat="47.8255" lon="-2.40366">
        <ele>11.192504882812</ele>
        <time>2012-04-15T12:58:48Z</time>
      </trkpt>
      <trkpt lat="47.82591" lon="-2.40441">
        <ele>11.673217773438</ele>
        <time>2012-04-15T12:59:05Z</time>
      </trkpt>
      <trkpt lat="47.82626" lon="-2.40499">
        <ele>10.231201171875</ele>
        <time>2012-04-15T12:59:19Z</time>
      </trkpt>
      <trkpt lat="47.82658" lon="-2.40549">
        <ele>11.192504882812</ele>
        <time>2012-04-15T12:59:32Z</time>
      </trkpt>
      <trkpt lat="47.82701" lon="-2.40617">
        <ele>11.673217773438</ele>
        <time>2012-04-15T12:59:49Z</time>
      </trkpt>
      <trkpt lat="47.82727" lon="-2.40662">
        <ele>10.711791992188</ele>
        <time>2012-04-15T13:00:00Z</time>
      </trkpt>
      <trkpt lat="47.82781" lon="-2.40694">
        <ele>11.192504882812</ele>
        <time>2012-04-15T13:00:14Z</time>
      </trkpt>
      <trkpt lat="47.82791" lon="-2.40708">
        <ele>12.15380859375</ele>
        <time>2012-04-15T13:00:23Z</time>
      </trkpt>
      <trkpt lat="47.82825" lon="-2.40756">
        <ele>11.192504882812</ele>
        <time>2012-04-15T13:00:31Z</time>
      </trkpt>
      <trkpt lat="47.82848" lon="-2.40789">
        <ele>11.192504882812</ele>
        <time>2012-04-15T13:00:39Z</time>
      </trkpt>
      <trkpt lat="47.82873" lon="-2.40825">
        <ele>11.192504882812</ele>
        <time>2012-04-15T13:00:49Z</time>
      </trkpt>
      <trkpt lat="47.82901" lon="-2.40856">
        <ele>12.634399414062</ele>
        <time>2012-04-15T13:01:00Z</time>
      </trkpt>
      <trkpt lat="47.82928" lon="-2.40887">
        <ele>14.557006835938</ele>
        <time>2012-04-15T13:01:11Z</time>
      </trkpt>
      <trkpt lat="47.82938" lon="-2.40898">
        <ele>14.076416015625</ele>
        <time>2012-04-15T13:01:16Z</time>
      </trkpt>
      <trkpt lat="47.82941" lon="-2.40901">
        <ele>14.076416015625</ele>
        <time>2012-04-15T13:01:28Z</time>
      </trkpt>
      <trkpt lat="47.82983" lon="-2.40974">
        <ele>10.711791992188</ele>
        <time>2012-04-15T13:01:42Z</time>
      </trkpt>
      <trkpt lat="47.82991" lon="-2.4098">
        <ele>9.7506103515625</ele>
        <time>2012-04-15T13:01:46Z</time>
      </trkpt>
      <trkpt lat="47.83024" lon="-2.4101">
        <ele>9.7506103515625</ele>
        <time>2012-04-15T13:01:59Z</time>
      </trkpt>
      <trkpt lat="47.83088" lon="-2.41075">
        <ele>11.673217773438</ele>
        <time>2012-04-15T13:02:23Z</time>
      </trkpt>
      <trkpt lat="47.83115" lon="-2.41117">
        <ele>11.673217773438</ele>
        <time>2012-04-15T13:02:37Z</time>
      </trkpt>
      <trkpt lat="47.83158" lon="-2.41168">
        <ele>10.711791992188</ele>
        <time>2012-04-15T13:02:52Z</time>
      </trkpt>
      <trkpt lat="47.8324" lon="-2.41234">
        <ele>11.192504882812</ele>
        <time>2012-04-15T13:03:18Z</time>
      </trkpt>
      <trkpt lat="47.83303" lon="-2.41303">
        <ele>10.231201171875</ele>
        <time>2012-04-15T13:03:38Z</time>
      </trkpt>
      <trkpt lat="47.83364" lon="-2.41407">
        <ele>11.192504882812</ele>
        <time>2012-04-15T13:04:01Z</time>
      </trkpt>
      <trkpt lat="47.83433" lon="-2.41505">
        <ele>10.711791992188</ele>
        <time>2012-04-15T13:04:25Z</time>
      </trkpt>
      <trkpt lat="47.83497" lon="-2.41611">
        <ele>11.673217773438</ele>
        <time>2012-04-15T13:04:48Z</time>
      </trkpt>
      <trkpt lat="47.83544" lon="-2.4165">
        <ele>10.711791992188</ele>
        <time>2012-04-15T13:05:03Z</time>
      </trkpt>
      <trkpt lat="47.83586" lon="-2.41665">
        <ele>10.711791992188</ele>
        <time>2012-04-15T13:05:15Z</time>
      </trkpt>
      <trkpt lat="47.83618" lon="-2.41699">
        <ele>7.827880859375</ele>
        <time>2012-04-15T13:05:26Z</time>
      </trkpt>
      <trkpt lat="47.83666" lon="-2.41765">
        <ele>9.7506103515625</ele>
        <time>2012-04-15T13:05:43Z</time>
      </trkpt>
      <trkpt lat="47.83706" lon="-2.41872">
        <ele>11.192504882812</ele>
        <time>2012-04-15T13:06:04Z</time>
      </trkpt>
      <trkpt lat="47.83694" lon="-2.41978">
        <ele>11.673217773438</ele>
        <time>2012-04-15T13:06:21Z</time>
      </trkpt>
      <trkpt lat="47.83694" lon="-2.42116">
        <ele>11.673217773438</ele>
        <time>2012-04-15T13:06:43Z</time>
      </trkpt>
      <trkpt lat="47.83707" lon="-2.42262">
        <ele>11.673217773438</ele>
        <time>2012-04-15T13:07:06Z</time>
      </trkpt>
      <trkpt lat="47.83745" lon="-2.42425">
        <ele>11.673217773438</ele>
        <time>2012-04-15T13:07:34Z</time>
      </trkpt>
      <trkpt lat="47.83781" lon="-2.42569">
        <ele>12.15380859375</ele>
        <time>2012-04-15T13:08:01Z</time>
      </trkpt>
      <trkpt lat="47.83826" lon="-2.42687">
        <ele>12.634399414062</ele>
        <time>2012-04-15T13:08:25Z</time>
      </trkpt>
      <trkpt lat="47.83838" lon="-2.42706">
        <ele>12.634399414062</ele>
        <time>2012-04-15T13:08:30Z</time>
      </trkpt>
      <trkpt lat="47.83867" lon="-2.42757">
        <ele>12.15380859375</ele>
        <time>2012-04-15T13:08:42Z</time>
      </trkpt>
      <trkpt lat="47.83926" lon="-2.42884">
        <ele>11.673217773438</ele>
        <time>2012-04-15T13:09:08Z</time>
      </trkpt>
      <trkpt lat="47.83967" lon="-2.43">
        <ele>11.673217773438</ele>
        <time>2012-04-15T13:09:31Z</time>
      </trkpt>
      <trkpt lat="47.83998" lon="-2.43072">
        <ele>12.15380859375</ele>
        <time>2012-04-15T13:09:46Z</time>
      </trkpt>
      <trkpt lat="47.84001" lon="-2.43118">
        <ele>12.15380859375</ele>
        <time>2012-04-15T13:09:54Z</time>
      </trkpt>
      <trkpt lat="47.83966" lon="-2.43189">
        <ele>12.15380859375</ele>
        <time>2012-04-15T13:10:10Z</time>
      </trkpt>
      <trkpt lat="47.83941" lon="-2.43279">
        <ele>11.673217773438</ele>
        <time>2012-04-15T13:10:26Z</time>
      </trkpt>
      <trkpt lat="47.83956" lon="-2.43413">
        <ele>11.192504882812</ele>
        <time>2012-04-15T13:10:48Z</time>
      </trkpt>
      <trkpt lat="47.83992" lon="-2.43511">
        <ele>11.673217773438</ele>
        <time>2012-04-15T13:11:07Z</time>
      </trkpt>
      <trkpt lat="47.84041" lon="-2.43615">
        <ele>12.634399414062</ele>
        <time>2012-04-15T13:11:29Z</time>
      </trkpt>
      <trkpt lat="47.84096" lon="-2.43679">
        <ele>12.634399414062</ele>
        <time>2012-04-15T13:11:48Z</time>
      </trkpt>
      <trkpt lat="47.84173" lon="-2.43775">
        <ele>11.673217773438</ele>
        <time>2012-04-15T13:12:15Z</time>
      </trkpt>
      <trkpt lat="47.84254" lon="-2.43884">
        <ele>12.15380859375</ele>
        <time>2012-04-15T13:12:45Z</time>
      </trkpt>
      <trkpt lat="47.84328" lon="-2.43996">
        <ele>11.673217773438</ele>
        <time>2012-04-15T13:13:13Z</time>
      </trkpt>
      <trkpt lat="47.84382" lon="-2.44112">
        <ele>12.15380859375</ele>
        <time>2012-04-15T13:13:39Z</time>
      </trkpt>
      <trkpt lat="47.84425" lon="-2.44185">
        <ele>11.673217773438</ele>
        <time>2012-04-15T13:13:57Z</time>
      </trkpt>
      <trkpt lat="47.84496" lon="-2.44214">
        <ele>11.673217773438</ele>
        <time>2012-04-15T13:14:14Z</time>
      </trkpt>
      <trkpt lat="47.84601" lon="-2.44247">
        <ele>10.711791992188</ele>
        <time>2012-04-15T13:14:43Z</time>
      </trkpt>
      <trkpt lat="47.84697" lon="-2.44283">
        <ele>10.711791992188</ele>
        <time>2012-04-15T13:15:10Z</time>
      </trkpt>
      <trkpt lat="47.84747" lon="-2.44337">
        <ele>10.711791992188</ele>
        <time>2012-04-15T13:15:28Z</time>
      </trkpt>
      <trkpt lat="47.84803" lon="-2.44413">
        <ele>10.711791992188</ele>
        <time>2012-04-15T13:15:49Z</time>
      </trkpt>
      <trkpt lat="47.84872" lon="-2.44491">
        <ele>10.231201171875</ele>
        <time>2012-04-15T13:16:14Z</time>
      </trkpt>
      <trkpt lat="47.84964" lon="-2.44554">
        <ele>10.711791992188</ele>
        <time>2012-04-15T13:16:43Z</time>
      </trkpt>
      <trkpt lat="47.8504" lon="-2.44584">
        <ele>11.192504882812</ele>
        <time>2012-04-15T13:17:05Z</time>
      </trkpt>
      <trkpt lat="47.85107" lon="-2.44602">
        <ele>10.711791992188</ele>
        <time>2012-04-15T13:17:25Z</time>
      </trkpt>
      <trkpt lat="47.85119" lon="-2.44605">
        <ele>10.711791992188</ele>
        <time>2012-04-15T13:17:30Z</time>
      </trkpt>
      <trkpt lat="47.85166" lon="-2.44597">
        <ele>10.231201171875</ele>
        <time>2012-04-15T13:17:46Z</time>
      </trkpt>
      <trkpt lat="47.8521" lon="-2.44613">
        <ele>9.2698974609375</ele>
        <time>2012-04-15T13:18:00Z</time>
      </trkpt>
      <trkpt lat="47.85255" lon="-2.4463">
        <ele>7.827880859375</ele>
        <time>2012-04-15T13:18:13Z</time>
      </trkpt>
      <trkpt lat="47.85292" lon="-2.44636">
        <ele>9.7506103515625</ele>
        <time>2012-04-15T13:18:24Z</time>
      </trkpt>
      <trkpt lat="47.8535" lon="-2.44645">
        <ele>10.231201171875</ele>
        <time>2012-04-15T13:18:41Z</time>
      </trkpt>
      <trkpt lat="47.85397" lon="-2.44647">
        <ele>13.115112304688</ele>
        <time>2012-04-15T13:18:57Z</time>
      </trkpt>
      <trkpt lat="47.85408" lon="-2.44646">
        <ele>12.634399414062</ele>
        <time>2012-04-15T13:19:02Z</time>
      </trkpt>
      <trkpt lat="47.8548" lon="-2.44634">
        <ele>13.115112304688</ele>
        <time>2012-04-15T13:19:22Z</time>
      </trkpt>
      <trkpt lat="47.85577" lon="-2.44622">
        <ele>16.479736328125</ele>
        <time>2012-04-15T13:19:48Z</time>
      </trkpt>
      <trkpt lat="47.85662" lon="-2.44634">
        <ele>17.921752929688</ele>
        <time>2012-04-15T13:20:12Z</time>
      </trkpt>
      <trkpt lat="47.85708" lon="-2.44652">
        <ele>18.883056640625</ele>
        <time>2012-04-15T13:20:25Z</time>
      </trkpt>
      <trkpt lat="47.85754" lon="-2.44679">
        <ele>17.921752929688</ele>
        <time>2012-04-15T13:20:39Z</time>
      </trkpt>
      <trkpt lat="47.85815" lon="-2.44695">
        <ele>15.518432617188</ele>
        <time>2012-04-15T13:20:55Z</time>
      </trkpt>
      <trkpt lat="47.85893" lon="-2.44688">
        <ele>15.9990234375</ele>
        <time>2012-04-15T13:21:17Z</time>
      </trkpt>
      <trkpt lat="47.85963" lon="-2.44662">
        <ele>15.9990234375</ele>
        <time>2012-04-15T13:21:37Z</time>
      </trkpt>
      <trkpt lat="47.86036" lon="-2.446">
        <ele>17.441162109375</ele>
        <time>2012-04-15T13:21:58Z</time>
      </trkpt>
      <trkpt lat="47.86112" lon="-2.44565">
        <ele>16.479736328125</ele>
        <time>2012-04-15T13:22:18Z</time>
      </trkpt>
      <trkpt lat="47.86188" lon="-2.44558">
        <ele>15.518432617188</ele>
        <time>2012-04-15T13:22:41Z</time>
      </trkpt>
      <trkpt lat="47.86259" lon="-2.44564">
        <ele>15.037719726562</ele>
        <time>2012-04-15T13:23:05Z</time>
      </trkpt>
      <trkpt lat="47.86332" lon="-2.44575">
        <ele>15.037719726562</ele>
        <time>2012-04-15T13:23:29Z</time>
      </trkpt>
      <trkpt lat="47.86354" lon="-2.4458">
        <ele>15.037719726562</ele>
        <time>2012-04-15T13:23:38Z</time>
      </trkpt>
      <trkpt lat="47.86358" lon="-2.44584">
        <ele>15.037719726562</ele>
        <time>2012-04-15T13:23:40Z</time>
      </trkpt>
      <trkpt lat="47.86368" lon="-2.44588">
        <ele>15.037719726562</ele>
        <time>2012-04-15T13:23:46Z</time>
      </trkpt>
      <trkpt lat="47.864" lon="-2.44592">
        <ele>15.9990234375</ele>
        <time>2012-04-15T13:24:04Z</time>
      </trkpt>
      <trkpt lat="47.86426" lon="-2.44601">
        <ele>17.441162109375</ele>
        <time>2012-04-15T13:24:18Z</time>
      </trkpt>
      <trkpt lat="47.86458" lon="-2.4461">
        <ele>19.36376953125</ele>
        <time>2012-04-15T13:24:34Z</time>
      </trkpt>
      <trkpt lat="47.86492" lon="-2.44621">
        <ele>21.766967773438</ele>
        <time>2012-04-15T13:24:53Z</time>
      </trkpt>
      <trkpt lat="47.865" lon="-2.44624">
        <ele>21.766967773438</ele>
        <time>2012-04-15T13:25:06Z</time>
      </trkpt>
      <trkpt lat="47.86501" lon="-2.44624">
        <ele>21.766967773438</ele>
        <time>2012-04-15T13:25:21Z</time>
      </trkpt>
      <trkpt lat="47.86504" lon="-2.44616">
        <ele>21.766967773438</ele>
        <time>2012-04-15T13:25:25Z</time>
      </trkpt>
      <trkpt lat="47.86508" lon="-2.44518">
        <ele>18.883056640625</ele>
        <time>2012-04-15T13:25:41Z</time>
      </trkpt>
      <trkpt lat="47.86514" lon="-2.4444">
        <ele>16.96044921875</ele>
        <time>2012-04-15T13:25:55Z</time>
      </trkpt>
      <trkpt lat="47.86536" lon="-2.44437">
        <ele>15.9990234375</ele>
        <time>2012-04-15T13:26:03Z</time>
      </trkpt>
      <trkpt lat="47.86539" lon="-2.44441">
        <ele>15.518432617188</ele>
        <time>2012-04-15T13:26:05Z</time>
      </trkpt>
      <trkpt lat="47.86587" lon="-2.44452">
        <ele>14.557006835938</ele>
        <time>2012-04-15T13:26:18Z</time>
      </trkpt>
      <trkpt lat="47.86612" lon="-2.44455">
        <ele>14.557006835938</ele>
        <time>2012-04-15T13:26:24Z</time>
      </trkpt>
      <trkpt lat="47.86637" lon="-2.44427">
        <ele>14.076416015625</ele>
        <time>2012-04-15T13:26:34Z</time>
      </trkpt>
      <trkpt lat="47.86644" lon="-2.44293">
        <ele>14.076416015625</ele>
        <time>2012-04-15T13:26:58Z</time>
      </trkpt>
      <trkpt lat="47.86655" lon="-2.44091">
        <ele>13.595825195312</ele>
        <time>2012-04-15T13:27:32Z</time>
      </trkpt>
      <trkpt lat="47.86669" lon="-2.43974">
        <ele>13.115112304688</ele>
        <time>2012-04-15T13:27:54Z</time>
      </trkpt>
      <trkpt lat="47.86688" lon="-2.43851">
        <ele>12.634399414062</ele>
        <time>2012-04-15T13:28:21Z</time>
      </trkpt>
      <trkpt lat="47.86701" lon="-2.43809">
        <ele>11.192504882812</ele>
        <time>2012-04-15T13:28:32Z</time>
      </trkpt>
      <trkpt lat="47.86723" lon="-2.43726">
        <ele>12.634399414062</ele>
        <time>2012-04-15T13:28:51Z</time>
      </trkpt>
      <trkpt lat="47.8675" lon="-2.43646">
        <ele>15.037719726562</ele>
        <time>2012-04-15T13:29:08Z</time>
      </trkpt>
      <trkpt lat="47.86779" lon="-2.43575">
        <ele>15.518432617188</ele>
        <time>2012-04-15T13:29:23Z</time>
      </trkpt>
      <trkpt lat="47.86807" lon="-2.4351">
        <ele>16.479736328125</ele>
        <time>2012-04-15T13:29:38Z</time>
      </trkpt>
      <trkpt lat="47.86822" lon="-2.43489">
        <ele>15.518432617188</ele>
        <time>2012-04-15T13:29:44Z</time>
      </trkpt>
      <trkpt lat="47.86851" lon="-2.43458">
        <ele>13.115112304688</ele>
        <time>2012-04-15T13:29:53Z</time>
      </trkpt>
      <trkpt lat="47.86915" lon="-2.43395">
        <ele>15.037719726562</ele>
        <time>2012-04-15T13:30:13Z</time>
      </trkpt>
      <trkpt lat="47.86949" lon="-2.43348">
        <ele>16.479736328125</ele>
        <time>2012-04-15T13:30:28Z</time>
      </trkpt>
      <trkpt lat="47.8698" lon="-2.43265">
        <ele>15.9990234375</ele>
        <time>2012-04-15T13:30:45Z</time>
      </trkpt>
      <trkpt lat="47.87009" lon="-2.43143">
        <ele>12.634399414062</ele>
        <time>2012-04-15T13:31:10Z</time>
      </trkpt>
      <trkpt lat="47.87035" lon="-2.43085">
        <ele>12.15380859375</ele>
        <time>2012-04-15T13:31:24Z</time>
      </trkpt>
      <trkpt lat="47.87079" lon="-2.42987">
        <ele>11.673217773438</ele>
        <time>2012-04-15T13:31:45Z</time>
      </trkpt>
      <trkpt lat="47.87117" lon="-2.42846">
        <ele>12.15380859375</ele>
        <time>2012-04-15T13:32:10Z</time>
      </trkpt>
      <trkpt lat="47.87164" lon="-2.42752">
        <ele>10.711791992188</ele>
        <time>2012-04-15T13:32:31Z</time>
      </trkpt>
      <trkpt lat="47.8721" lon="-2.42715">
        <ele>13.595825195312</ele>
        <time>2012-04-15T13:32:45Z</time>
      </trkpt>
      <trkpt lat="47.87251" lon="-2.4273">
        <ele>12.634399414062</ele>
        <time>2012-04-15T13:32:58Z</time>
      </trkpt>
      <trkpt lat="47.87332" lon="-2.42777">
        <ele>12.634399414062</ele>
        <time>2012-04-15T13:33:22Z</time>
      </trkpt>
      <trkpt lat="47.87422" lon="-2.42801">
        <ele>12.15380859375</ele>
        <time>2012-04-15T13:33:47Z</time>
      </trkpt>
      <trkpt lat="47.87507" lon="-2.42802">
        <ele>13.115112304688</ele>
        <time>2012-04-15T13:34:09Z</time>
      </trkpt>
      <trkpt lat="47.87578" lon="-2.42765">
        <ele>12.634399414062</ele>
        <time>2012-04-15T13:34:28Z</time>
      </trkpt>
      <trkpt lat="47.87624" lon="-2.42702">
        <ele>13.595825195312</ele>
        <time>2012-04-15T13:34:45Z</time>
      </trkpt>
      <trkpt lat="47.87662" lon="-2.42621">
        <ele>16.479736328125</ele>
        <time>2012-04-15T13:35:03Z</time>
      </trkpt>
      <trkpt lat="47.87702" lon="-2.42555">
        <ele>17.441162109375</ele>
        <time>2012-04-15T13:35:18Z</time>
      </trkpt>
      <trkpt lat="47.8775" lon="-2.4249">
        <ele>17.921752929688</ele>
        <time>2012-04-15T13:35:35Z</time>
      </trkpt>
      <trkpt lat="47.87785" lon="-2.4245">
        <ele>18.40234375</ele>
        <time>2012-04-15T13:35:47Z</time>
      </trkpt>
      <trkpt lat="47.87821" lon="-2.42411">
        <ele>21.286376953125</ele>
        <time>2012-04-15T13:36:00Z</time>
      </trkpt>
      <trkpt lat="47.87864" lon="-2.42383">
        <ele>19.844360351562</ele>
        <time>2012-04-15T13:36:12Z</time>
      </trkpt>
      <trkpt lat="47.87911" lon="-2.42358">
        <ele>17.921752929688</ele>
        <time>2012-04-15T13:36:25Z</time>
      </trkpt>
      <trkpt lat="47.87982" lon="-2.42343">
        <ele>16.96044921875</ele>
        <time>2012-04-15T13:36:46Z</time>
      </trkpt>
      <trkpt lat="47.8803" lon="-2.42337">
        <ele>16.479736328125</ele>
        <time>2012-04-15T13:37:04Z</time>
      </trkpt>
      <trkpt lat="47.88094" lon="-2.4234">
        <ele>15.9990234375</ele>
        <time>2012-04-15T13:37:26Z</time>
      </trkpt>
      <trkpt lat="47.8813" lon="-2.42376">
        <ele>15.518432617188</ele>
        <time>2012-04-15T13:37:43Z</time>
      </trkpt>
      <trkpt lat="47.88133" lon="-2.42379">
        <ele>15.037719726562</ele>
        <time>2012-04-15T13:37:58Z</time>
      </trkpt>
      <trkpt lat="47.88135" lon="-2.42378">
        <ele>15.518432617188</ele>
        <time>2012-04-15T13:38:10Z</time>
      </trkpt>
      <trkpt lat="47.88132" lon="-2.42378">
        <ele>14.557006835938</ele>
        <time>2012-04-15T13:52:26Z</time>
      </trkpt>
      <trkpt lat="47.88134" lon="-2.42377">
        <ele>13.595825195312</ele>
        <time>2012-04-15T13:52:53Z</time>
      </trkpt>
      <trkpt lat="47.8816" lon="-2.42416">
        <ele>14.557006835938</ele>
        <time>2012-04-15T13:53:08Z</time>
      </trkpt>
      <trkpt lat="47.88213" lon="-2.42478">
        <ele>15.037719726562</ele>
        <time>2012-04-15T13:53:28Z</time>
      </trkpt>
      <trkpt lat="47.88295" lon="-2.42539">
        <ele>15.9990234375</ele>
        <time>2012-04-15T13:53:53Z</time>
      </trkpt>
      <trkpt lat="47.88377" lon="-2.4261">
        <ele>15.9990234375</ele>
        <time>2012-04-15T13:54:18Z</time>
      </trkpt>
      <trkpt lat="47.88431" lon="-2.42707">
        <ele>15.9990234375</ele>
        <time>2012-04-15T13:54:41Z</time>
      </trkpt>
      <trkpt lat="47.88508" lon="-2.42843">
        <ele>15.9990234375</ele>
        <time>2012-04-15T13:55:12Z</time>
      </trkpt>
      <trkpt lat="47.8858" lon="-2.42965">
        <ele>16.96044921875</ele>
        <time>2012-04-15T13:55:40Z</time>
      </trkpt>
      <trkpt lat="47.88592" lon="-2.42996">
        <ele>16.96044921875</ele>
        <time>2012-04-15T13:55:51Z</time>
      </trkpt>
      <trkpt lat="47.88602" lon="-2.43025">
        <ele>17.441162109375</ele>
        <time>2012-04-15T13:56:59Z</time>
      </trkpt>
      <trkpt lat="47.88657" lon="-2.43145">
        <ele>17.921752929688</ele>
        <time>2012-04-15T13:57:24Z</time>
      </trkpt>
      <trkpt lat="47.88717" lon="-2.43273">
        <ele>19.36376953125</ele>
        <time>2012-04-15T13:57:50Z</time>
      </trkpt>
      <trkpt lat="47.88746" lon="-2.43412">
        <ele>19.36376953125</ele>
        <time>2012-04-15T13:58:13Z</time>
      </trkpt>
      <trkpt lat="47.8878" lon="-2.43576">
        <ele>19.36376953125</ele>
        <time>2012-04-15T13:58:40Z</time>
      </trkpt>
      <trkpt lat="47.88804" lon="-2.43635">
        <ele>20.8056640625</ele>
        <time>2012-04-15T13:58:53Z</time>
      </trkpt>
      <trkpt lat="47.88796" lon="-2.43722">
        <ele>20.324951171875</ele>
        <time>2012-04-15T13:59:10Z</time>
      </trkpt>
      <trkpt lat="47.88773" lon="-2.4384">
        <ele>19.36376953125</ele>
        <time>2012-04-15T13:59:28Z</time>
      </trkpt>
      <trkpt lat="47.88734" lon="-2.43971">
        <ele>18.40234375</ele>
        <time>2012-04-15T13:59:51Z</time>
      </trkpt>
      <trkpt lat="47.88734" lon="-2.44108">
        <ele>17.441162109375</ele>
        <time>2012-04-15T14:00:14Z</time>
      </trkpt>
      <trkpt lat="47.88722" lon="-2.44253">
        <ele>17.441162109375</ele>
        <time>2012-04-15T14:00:37Z</time>
      </trkpt>
      <trkpt lat="47.88709" lon="-2.44409">
        <ele>17.921752929688</ele>
        <time>2012-04-15T14:01:02Z</time>
      </trkpt>
      <trkpt lat="47.88684" lon="-2.44586">
        <ele>18.40234375</ele>
        <time>2012-04-15T14:01:31Z</time>
      </trkpt>
      <trkpt lat="47.88655" lon="-2.44734">
        <ele>16.96044921875</ele>
        <time>2012-04-15T14:01:56Z</time>
      </trkpt>
      <trkpt lat="47.8865" lon="-2.44855">
        <ele>15.9990234375</ele>
        <time>2012-04-15T14:02:15Z</time>
      </trkpt>
      <trkpt lat="47.88671" lon="-2.44988">
        <ele>15.9990234375</ele>
        <time>2012-04-15T14:02:36Z</time>
      </trkpt>
      <trkpt lat="47.88717" lon="-2.45077">
        <ele>16.479736328125</ele>
        <time>2012-04-15T14:02:56Z</time>
      </trkpt>
      <trkpt lat="47.8875" lon="-2.45126">
        <ele>18.40234375</ele>
        <time>2012-04-15T14:03:12Z</time>
      </trkpt>
      <trkpt lat="47.88803" lon="-2.45211">
        <ele>19.36376953125</ele>
        <time>2012-04-15T14:03:34Z</time>
      </trkpt>
      <trkpt lat="47.88844" lon="-2.45275">
        <ele>19.36376953125</ele>
        <time>2012-04-15T14:03:49Z</time>
      </trkpt>
      <trkpt lat="47.88891" lon="-2.45287">
        <ele>19.36376953125</ele>
        <time>2012-04-15T14:04:01Z</time>
      </trkpt>
      <trkpt lat="47.88954" lon="-2.45247">
        <ele>19.36376953125</ele>
        <time>2012-04-15T14:04:21Z</time>
      </trkpt>
      <trkpt lat="47.89022" lon="-2.45237">
        <ele>20.324951171875</ele>
        <time>2012-04-15T14:04:41Z</time>
      </trkpt>
      <trkpt lat="47.89105" lon="-2.45263">
        <ele>20.8056640625</ele>
        <time>2012-04-15T14:05:02Z</time>
      </trkpt>
      <trkpt lat="47.89215" lon="-2.45302">
        <ele>19.844360351562</ele>
        <time>2012-04-15T14:05:32Z</time>
      </trkpt>
      <trkpt lat="47.89332" lon="-2.45344">
        <ele>19.844360351562</ele>
        <time>2012-04-15T14:06:03Z</time>
      </trkpt>
      <trkpt lat="47.89416" lon="-2.45369">
        <ele>19.844360351562</ele>
        <time>2012-04-15T14:06:26Z</time>
      </trkpt>
      <trkpt lat="47.89473" lon="-2.4541">
        <ele>19.36376953125</ele>
        <time>2012-04-15T14:06:41Z</time>
      </trkpt>
      <trkpt lat="47.89508" lon="-2.45455">
        <ele>19.36376953125</ele>
        <time>2012-04-15T14:06:52Z</time>
      </trkpt>
      <trkpt lat="47.89595" lon="-2.45489">
        <ele>18.40234375</ele>
        <time>2012-04-15T14:07:13Z</time>
      </trkpt>
      <trkpt lat="47.89663" lon="-2.45547">
        <ele>17.441162109375</ele>
        <time>2012-04-15T14:07:32Z</time>
      </trkpt>
      <trkpt lat="47.89758" lon="-2.4564">
        <ele>16.96044921875</ele>
        <time>2012-04-15T14:07:59Z</time>
      </trkpt>
      <trkpt lat="47.89847" lon="-2.45695">
        <ele>17.441162109375</ele>
        <time>2012-04-15T14:08:22Z</time>
      </trkpt>
      <trkpt lat="47.89918" lon="-2.45749">
        <ele>17.441162109375</ele>
        <time>2012-04-15T14:08:42Z</time>
      </trkpt>
      <trkpt lat="47.90029" lon="-2.4578">
        <ele>16.96044921875</ele>
        <time>2012-04-15T14:09:06Z</time>
      </trkpt>
      <trkpt lat="47.9004" lon="-2.45796">
        <ele>17.441162109375</ele>
        <time>2012-04-15T14:09:10Z</time>
      </trkpt>
      <trkpt lat="47.90049" lon="-2.45808">
        <ele>16.96044921875</ele>
        <time>2012-04-15T14:09:13Z</time>
      </trkpt>
      <trkpt lat="47.90034" lon="-2.45925">
        <ele>17.441162109375</ele>
        <time>2012-04-15T14:09:24Z</time>
      </trkpt>
      <trkpt lat="47.90028" lon="-2.46069">
        <ele>17.441162109375</ele>
        <time>2012-04-15T14:09:47Z</time>
      </trkpt>
      <trkpt lat="47.90027" lon="-2.46094">
        <ele>16.479736328125</ele>
        <time>2012-04-15T14:09:51Z</time>
      </trkpt>
      <trkpt lat="47.89998" lon="-2.46188">
        <ele>16.96044921875</ele>
        <time>2012-04-15T14:10:09Z</time>
      </trkpt>
      <trkpt lat="47.89989" lon="-2.46234">
        <ele>15.518432617188</ele>
        <time>2012-04-15T14:10:20Z</time>
      </trkpt>
      <trkpt lat="47.89982" lon="-2.46283">
        <ele>15.9990234375</ele>
        <time>2012-04-15T14:10:29Z</time>
      </trkpt>
      <trkpt lat="47.89976" lon="-2.46362">
        <ele>15.518432617188</ele>
        <time>2012-04-15T14:10:42Z</time>
      </trkpt>
      <trkpt lat="47.89993" lon="-2.46486">
        <ele>16.96044921875</ele>
        <time>2012-04-15T14:11:03Z</time>
      </trkpt>
      <trkpt lat="47.90022" lon="-2.46556">
        <ele>17.921752929688</ele>
        <time>2012-04-15T14:11:17Z</time>
      </trkpt>
      <trkpt lat="47.90074" lon="-2.46619">
        <ele>17.441162109375</ele>
        <time>2012-04-15T14:11:34Z</time>
      </trkpt>
      <trkpt lat="47.9014" lon="-2.46684">
        <ele>17.921752929688</ele>
        <time>2012-04-15T14:11:54Z</time>
      </trkpt>
      <trkpt lat="47.90161" lon="-2.46712">
        <ele>17.921752929688</ele>
        <time>2012-04-15T14:12:01Z</time>
      </trkpt>
      <trkpt lat="47.90197" lon="-2.46819">
        <ele>18.40234375</ele>
        <time>2012-04-15T14:12:20Z</time>
      </trkpt>
      <trkpt lat="47.90209" lon="-2.46873">
        <ele>20.324951171875</ele>
        <time>2012-04-15T14:12:32Z</time>
      </trkpt>
      <trkpt lat="47.90237" lon="-2.4696">
        <ele>21.766967773438</ele>
        <time>2012-04-15T14:12:49Z</time>
      </trkpt>
      <trkpt lat="47.90283" lon="-2.46987">
        <ele>22.728271484375</ele>
        <time>2012-04-15T14:13:02Z</time>
      </trkpt>
      <trkpt lat="47.90343" lon="-2.47006">
        <ele>22.728271484375</ele>
        <time>2012-04-15T14:13:18Z</time>
      </trkpt>
      <trkpt lat="47.90403" lon="-2.47057">
        <ele>23.208984375</ele>
        <time>2012-04-15T14:13:37Z</time>
      </trkpt>
      <trkpt lat="47.90447" lon="-2.47099">
        <ele>22.728271484375</ele>
        <time>2012-04-15T14:13:56Z</time>
      </trkpt>
      <trkpt lat="47.90447" lon="-2.47099">
        <ele>23.208984375</ele>
        <time>2012-04-15T14:19:34Z</time>
      </trkpt>
      <trkpt lat="47.90449" lon="-2.47104">
        <ele>23.208984375</ele>
        <time>2012-04-15T14:19:37Z</time>
      </trkpt>
      <trkpt lat="47.90475" lon="-2.47127">
        <ele>23.208984375</ele>
        <time>2012-04-15T14:19:53Z</time>
      </trkpt>
      <trkpt lat="47.90508" lon="-2.47172">
        <ele>22.728271484375</ele>
        <time>2012-04-15T14:20:10Z</time>
      </trkpt>
      <trkpt lat="47.90523" lon="-2.47224">
        <ele>21.766967773438</ele>
        <time>2012-04-15T14:20:25Z</time>
      </trkpt>
      <trkpt lat="47.90553" lon="-2.47318">
        <ele>20.8056640625</ele>
        <time>2012-04-15T14:20:45Z</time>
      </trkpt>
      <trkpt lat="47.90615" lon="-2.47386">
        <ele>20.324951171875</ele>
        <time>2012-04-15T14:21:05Z</time>
      </trkpt>
      <trkpt lat="47.90698" lon="-2.47472">
        <ele>21.766967773438</ele>
        <time>2012-04-15T14:21:33Z</time>
      </trkpt>
      <trkpt lat="47.90773" lon="-2.47552">
        <ele>21.766967773438</ele>
        <time>2012-04-15T14:21:57Z</time>
      </trkpt>
      <trkpt lat="47.90782" lon="-2.47615">
        <ele>20.324951171875</ele>
        <time>2012-04-15T14:22:07Z</time>
      </trkpt>
      <trkpt lat="47.90771" lon="-2.47706">
        <ele>19.36376953125</ele>
        <time>2012-04-15T14:22:22Z</time>
      </trkpt>
      <trkpt lat="47.90783" lon="-2.4776">
        <ele>19.36376953125</ele>
        <time>2012-04-15T14:22:31Z</time>
      </trkpt>
      <trkpt lat="47.90794" lon="-2.47778">
        <ele>19.36376953125</ele>
        <time>2012-04-15T14:22:35Z</time>
      </trkpt>
      <trkpt lat="47.90867" lon="-2.47892">
        <ele>19.844360351562</ele>
        <time>2012-04-15T14:23:01Z</time>
      </trkpt>
      <trkpt lat="47.90897" lon="-2.47939">
        <ele>20.324951171875</ele>
        <time>2012-04-15T14:23:12Z</time>
      </trkpt>
      <trkpt lat="47.90948" lon="-2.48075">
        <ele>18.883056640625</ele>
        <time>2012-04-15T14:23:37Z</time>
      </trkpt>
      <trkpt lat="47.90992" lon="-2.48144">
        <ele>18.883056640625</ele>
        <time>2012-04-15T14:23:55Z</time>
      </trkpt>
      <trkpt lat="47.91066" lon="-2.48149">
        <ele>19.844360351562</ele>
        <time>2012-04-15T14:24:15Z</time>
      </trkpt>
      <trkpt lat="47.91159" lon="-2.48147">
        <ele>22.24755859375</ele>
        <time>2012-04-15T14:24:41Z</time>
      </trkpt>
      <trkpt lat="47.91216" lon="-2.48146">
        <ele>22.24755859375</ele>
        <time>2012-04-15T14:24:56Z</time>
      </trkpt>
      <trkpt lat="47.91263" lon="-2.48149">
        <ele>20.8056640625</ele>
        <time>2012-04-15T14:25:08Z</time>
      </trkpt>
      <trkpt lat="47.91332" lon="-2.48179">
        <ele>22.24755859375</ele>
        <time>2012-04-15T14:25:28Z</time>
      </trkpt>
      <trkpt lat="47.91402" lon="-2.48207">
        <ele>22.728271484375</ele>
        <time>2012-04-15T14:25:48Z</time>
      </trkpt>
      <trkpt lat="47.91493" lon="-2.48253">
        <ele>23.208984375</ele>
        <time>2012-04-15T14:26:14Z</time>
      </trkpt>
      <trkpt lat="47.91561" lon="-2.48217">
        <ele>23.689575195312</ele>
        <time>2012-04-15T14:26:29Z</time>
      </trkpt>
      <trkpt lat="47.91662" lon="-2.4829">
        <ele>22.24755859375</ele>
        <time>2012-04-15T14:26:55Z</time>
      </trkpt>
      <trkpt lat="47.91749" lon="-2.48362">
        <ele>21.766967773438</ele>
        <time>2012-04-15T14:27:20Z</time>
      </trkpt>
      <trkpt lat="47.91788" lon="-2.4855">
        <ele>22.24755859375</ele>
        <time>2012-04-15T14:27:45Z</time>
      </trkpt>
      <trkpt lat="47.9186" lon="-2.48634">
        <ele>22.24755859375</ele>
        <time>2012-04-15T14:28:08Z</time>
      </trkpt>
      <trkpt lat="47.91945" lon="-2.48731">
        <ele>23.689575195312</ele>
        <time>2012-04-15T14:28:37Z</time>
      </trkpt>
      <trkpt lat="47.9201" lon="-2.48815">
        <ele>23.208984375</ele>
        <time>2012-04-15T14:29:01Z</time>
      </trkpt>
      <trkpt lat="47.92046" lon="-2.48908">
        <ele>23.208984375</ele>
        <time>2012-04-15T14:29:21Z</time>
      </trkpt>
      <trkpt lat="47.92088" lon="-2.4903">
        <ele>22.728271484375</ele>
        <time>2012-04-15T14:29:47Z</time>
      </trkpt>
      <trkpt lat="47.92133" lon="-2.49097">
        <ele>22.728271484375</ele>
        <time>2012-04-15T14:30:04Z</time>
      </trkpt>
      <trkpt lat="47.92217" lon="-2.49179">
        <ele>22.728271484375</ele>
        <time>2012-04-15T14:30:32Z</time>
      </trkpt>
      <trkpt lat="47.92277" lon="-2.49266">
        <ele>21.286376953125</ele>
        <time>2012-04-15T14:30:54Z</time>
      </trkpt>
      <trkpt lat="47.92361" lon="-2.49357">
        <ele>22.24755859375</ele>
        <time>2012-04-15T14:31:18Z</time>
      </trkpt>
      <trkpt lat="47.92392" lon="-2.49473">
        <ele>21.766967773438</ele>
        <time>2012-04-15T14:31:40Z</time>
      </trkpt>
      <trkpt lat="47.924" lon="-2.49516">
        <ele>22.24755859375</ele>
        <time>2012-04-15T14:31:55Z</time>
      </trkpt>
      <trkpt lat="47.924" lon="-2.49516">
        <ele>23.208984375</ele>
        <time>2012-04-15T14:33:40Z</time>
      </trkpt>
      <trkpt lat="47.92405" lon="-2.49539">
        <ele>23.689575195312</ele>
        <time>2012-04-15T14:34:41Z</time>
      </trkpt>
      <trkpt lat="47.92412" lon="-2.49628">
        <ele>22.728271484375</ele>
        <time>2012-04-15T14:35:00Z</time>
      </trkpt>
      <trkpt lat="47.92412" lon="-2.49721">
        <ele>21.766967773438</ele>
        <time>2012-04-15T14:35:21Z</time>
      </trkpt>
      <trkpt lat="47.92412" lon="-2.49727">
        <ele>21.766967773438</ele>
        <time>2012-04-15T14:35:35Z</time>
      </trkpt>
      <trkpt lat="47.92412" lon="-2.49727">
        <ele>22.24755859375</ele>
        <time>2012-04-15T14:44:37Z</time>
      </trkpt>
      <trkpt lat="47.92414" lon="-2.49768">
        <ele>22.24755859375</ele>
        <time>2012-04-15T14:44:49Z</time>
      </trkpt>
      <trkpt lat="47.9232" lon="-2.4983">
        <ele>21.286376953125</ele>
        <time>2012-04-15T14:45:03Z</time>
      </trkpt>
      <trkpt lat="47.92317" lon="-2.49833">
        <ele>21.286376953125</ele>
        <time>2012-04-15T14:45:04Z</time>
      </trkpt>
      <trkpt lat="47.92274" lon="-2.49934">
        <ele>20.8056640625</ele>
        <time>2012-04-15T14:45:22Z</time>
      </trkpt>
      <trkpt lat="47.92264" lon="-2.50006">
        <ele>20.8056640625</ele>
        <time>2012-04-15T14:45:33Z</time>
      </trkpt>
      <trkpt lat="47.92281" lon="-2.50079">
        <ele>20.8056640625</ele>
        <time>2012-04-15T14:45:45Z</time>
      </trkpt>
      <trkpt lat="47.92341" lon="-2.50133">
        <ele>20.8056640625</ele>
        <time>2012-04-15T14:46:01Z</time>
      </trkpt>
      <trkpt lat="47.92419" lon="-2.50192">
        <ele>20.8056640625</ele>
        <time>2012-04-15T14:46:23Z</time>
      </trkpt>
      <trkpt lat="47.92507" lon="-2.50289">
        <ele>21.286376953125</ele>
        <time>2012-04-15T14:46:49Z</time>
      </trkpt>
      <trkpt lat="47.92588" lon="-2.50306">
        <ele>20.324951171875</ele>
        <time>2012-04-15T14:47:03Z</time>
      </trkpt>
      <trkpt lat="47.92658" lon="-2.5042">
        <ele>19.36376953125</ele>
        <time>2012-04-15T14:47:25Z</time>
      </trkpt>
      <trkpt lat="47.92723" lon="-2.50564">
        <ele>18.40234375</ele>
        <time>2012-04-15T14:47:51Z</time>
      </trkpt>
      <trkpt lat="47.92765" lon="-2.50704">
        <ele>17.921752929688</ele>
        <time>2012-04-15T14:48:14Z</time>
      </trkpt>
      <trkpt lat="47.92756" lon="-2.50852">
        <ele>17.921752929688</ele>
        <time>2012-04-15T14:48:34Z</time>
      </trkpt>
      <trkpt lat="47.92783" lon="-2.50965">
        <ele>17.441162109375</ele>
        <time>2012-04-15T14:48:52Z</time>
      </trkpt>
      <trkpt lat="47.92794" lon="-2.51012">
        <ele>15.518432617188</ele>
        <time>2012-04-15T14:49:00Z</time>
      </trkpt>
      <trkpt lat="47.92802" lon="-2.51036">
        <ele>15.518432617188</ele>
        <time>2012-04-15T14:49:04Z</time>
      </trkpt>
      <trkpt lat="47.92859" lon="-2.51185">
        <ele>18.40234375</ele>
        <time>2012-04-15T14:49:31Z</time>
      </trkpt>
      <trkpt lat="47.92877" lon="-2.51221">
        <ele>18.40234375</ele>
        <time>2012-04-15T14:49:40Z</time>
      </trkpt>
      <trkpt lat="47.92892" lon="-2.51223">
        <ele>19.844360351562</ele>
        <time>2012-04-15T14:49:48Z</time>
      </trkpt>
      <trkpt lat="47.92899" lon="-2.51257">
        <ele>22.24755859375</ele>
        <time>2012-04-15T14:50:04Z</time>
      </trkpt>
      <trkpt lat="47.92899" lon="-2.51257">
        <ele>22.24755859375</ele>
        <time>2012-04-15T14:50:07Z</time>
      </trkpt>
      <trkpt lat="47.9291" lon="-2.51278">
        <ele>20.8056640625</ele>
        <time>2012-04-15T14:50:24Z</time>
      </trkpt>
      <trkpt lat="47.92911" lon="-2.51284">
        <ele>20.324951171875</ele>
        <time>2012-04-15T14:50:39Z</time>
      </trkpt>
      <trkpt lat="47.92911" lon="-2.51284">
        <ele>19.844360351562</ele>
        <time>2012-04-15T14:50:46Z</time>
      </trkpt>
      <trkpt lat="47.92915" lon="-2.51293">
        <ele>20.324951171875</ele>
        <time>2012-04-15T14:50:51Z</time>
      </trkpt>
      <trkpt lat="47.92955" lon="-2.51363">
        <ele>19.36376953125</ele>
        <time>2012-04-15T14:51:13Z</time>
      </trkpt>
      <trkpt lat="47.92975" lon="-2.51405">
        <ele>18.40234375</ele>
        <time>2012-04-15T14:51:23Z</time>
      </trkpt>
      <trkpt lat="47.93011" lon="-2.51471">
        <ele>18.883056640625</ele>
        <time>2012-04-15T14:51:41Z</time>
      </trkpt>
      <trkpt lat="47.93032" lon="-2.51506">
        <ele>14.557006835938</ele>
        <time>2012-04-15T14:51:50Z</time>
      </trkpt>
      <trkpt lat="47.93048" lon="-2.51542">
        <ele>13.595825195312</ele>
        <time>2012-04-15T14:51:58Z</time>
      </trkpt>
      <trkpt lat="47.93078" lon="-2.51616">
        <ele>18.883056640625</ele>
        <time>2012-04-15T14:52:11Z</time>
      </trkpt>
      <trkpt lat="47.93099" lon="-2.5173">
        <ele>20.8056640625</ele>
        <time>2012-04-15T14:52:30Z</time>
      </trkpt>
      <trkpt lat="47.9311" lon="-2.51797">
        <ele>21.286376953125</ele>
        <time>2012-04-15T14:52:44Z</time>
      </trkpt>
      <trkpt lat="47.93123" lon="-2.51857">
        <ele>20.8056640625</ele>
        <time>2012-04-15T14:52:56Z</time>
      </trkpt>
      <trkpt lat="47.93123" lon="-2.5198">
        <ele>21.286376953125</ele>
        <time>2012-04-15T14:53:16Z</time>
      </trkpt>
      <trkpt lat="47.93106" lon="-2.52133">
        <ele>22.728271484375</ele>
        <time>2012-04-15T14:53:41Z</time>
      </trkpt>
      <trkpt lat="47.93101" lon="-2.52176">
        <ele>22.728271484375</ele>
        <time>2012-04-15T14:53:48Z</time>
      </trkpt>
      <trkpt lat="47.93108" lon="-2.52318">
        <ele>23.208984375</ele>
        <time>2012-04-15T14:54:11Z</time>
      </trkpt>
      <trkpt lat="47.93116" lon="-2.52474">
        <ele>24.170288085938</ele>
        <time>2012-04-15T14:54:36Z</time>
      </trkpt>
      <trkpt lat="47.93106" lon="-2.52568">
        <ele>24.651000976562</ele>
        <time>2012-04-15T14:54:51Z</time>
      </trkpt>
      <trkpt lat="47.93101" lon="-2.52617">
        <ele>24.651000976562</ele>
        <time>2012-04-15T14:54:58Z</time>
      </trkpt>
      <trkpt lat="47.93102" lon="-2.52715">
        <ele>25.131713867188</ele>
        <time>2012-04-15T14:55:12Z</time>
      </trkpt>
      <trkpt lat="47.93112" lon="-2.52768">
        <ele>24.651000976562</ele>
        <time>2012-04-15T14:55:24Z</time>
      </trkpt>
      <trkpt lat="47.93143" lon="-2.52818">
        <ele>24.651000976562</ele>
        <time>2012-04-15T14:55:37Z</time>
      </trkpt>
      <trkpt lat="47.93188" lon="-2.52849">
        <ele>24.651000976562</ele>
        <time>2012-04-15T14:55:51Z</time>
      </trkpt>
      <trkpt lat="47.93259" lon="-2.52931">
        <ele>25.131713867188</ele>
        <time>2012-04-15T14:56:13Z</time>
      </trkpt>
      <trkpt lat="47.93307" lon="-2.53039">
        <ele>25.131713867188</ele>
        <time>2012-04-15T14:56:34Z</time>
      </trkpt>
      <trkpt lat="47.93359" lon="-2.5316">
        <ele>24.651000976562</ele>
        <time>2012-04-15T14:56:58Z</time>
      </trkpt>
      <trkpt lat="47.9342" lon="-2.53224">
        <ele>23.689575195312</ele>
        <time>2012-04-15T14:57:15Z</time>
      </trkpt>
      <trkpt lat="47.93463" lon="-2.53268">
        <ele>23.689575195312</ele>
        <time>2012-04-15T14:57:27Z</time>
      </trkpt>
      <trkpt lat="47.93501" lon="-2.53366">
        <ele>25.6123046875</ele>
        <time>2012-04-15T14:57:45Z</time>
      </trkpt>
      <trkpt lat="47.93525" lon="-2.53482">
        <ele>28.015502929688</ele>
        <time>2012-04-15T14:58:04Z</time>
      </trkpt>
      <trkpt lat="47.93538" lon="-2.53506">
        <ele>27.534912109375</ele>
        <time>2012-04-15T14:58:09Z</time>
      </trkpt>
      <trkpt lat="47.93563" lon="-2.53528">
        <ele>28.015502929688</ele>
        <time>2012-04-15T14:58:20Z</time>
      </trkpt>
      <trkpt lat="47.93567" lon="-2.53536">
        <ele>28.015502929688</ele>
        <time>2012-04-15T14:58:25Z</time>
      </trkpt>
      <trkpt lat="47.93592" lon="-2.53563">
        <ele>27.054321289062</ele>
        <time>2012-04-15T14:58:37Z</time>
      </trkpt>
      <trkpt lat="47.93615" lon="-2.53582">
        <ele>27.054321289062</ele>
        <time>2012-04-15T14:58:51Z</time>
      </trkpt>
      <trkpt lat="47.93621" lon="-2.53588">
        <ele>26.573608398438</ele>
        <time>2012-04-15T14:58:57Z</time>
      </trkpt>
      <trkpt lat="47.93624" lon="-2.53596">
        <ele>26.573608398438</ele>
        <time>2012-04-15T14:59:00Z</time>
      </trkpt>
      <trkpt lat="47.93676" lon="-2.5365">
        <ele>27.054321289062</ele>
        <time>2012-04-15T14:59:19Z</time>
      </trkpt>
      <trkpt lat="47.93715" lon="-2.53688">
        <ele>27.534912109375</ele>
        <time>2012-04-15T14:59:33Z</time>
      </trkpt>
      <trkpt lat="47.93802" lon="-2.53778">
        <ele>28.015502929688</ele>
        <time>2012-04-15T14:59:59Z</time>
      </trkpt>
      <trkpt lat="47.9388" lon="-2.53831">
        <ele>28.496215820312</ele>
        <time>2012-04-15T15:00:20Z</time>
      </trkpt>
      <trkpt lat="47.93973" lon="-2.5384">
        <ele>27.534912109375</ele>
        <time>2012-04-15T15:00:42Z</time>
      </trkpt>
      <trkpt lat="47.94068" lon="-2.5388">
        <ele>27.534912109375</ele>
        <time>2012-04-15T15:01:06Z</time>
      </trkpt>
      <trkpt lat="47.9416" lon="-2.53928">
        <ele>27.054321289062</ele>
        <time>2012-04-15T15:01:30Z</time>
      </trkpt>
      <trkpt lat="47.94265" lon="-2.53971">
        <ele>26.092895507812</ele>
        <time>2012-04-15T15:01:56Z</time>
      </trkpt>
      <trkpt lat="47.94369" lon="-2.54001">
        <ele>26.092895507812</ele>
        <time>2012-04-15T15:02:22Z</time>
      </trkpt>
      <trkpt lat="47.94444" lon="-2.54036">
        <ele>26.573608398438</ele>
        <time>2012-04-15T15:02:42Z</time>
      </trkpt>
      <trkpt lat="47.94553" lon="-2.54113">
        <ele>26.573608398438</ele>
        <time>2012-04-15T15:03:12Z</time>
      </trkpt>
      <trkpt lat="47.94634" lon="-2.54178">
        <ele>26.092895507812</ele>
        <time>2012-04-15T15:03:38Z</time>
      </trkpt>
      <trkpt lat="47.94719" lon="-2.54245">
        <ele>26.092895507812</ele>
        <time>2012-04-15T15:04:04Z</time>
      </trkpt>
      <trkpt lat="47.94813" lon="-2.54308">
        <ele>26.092895507812</ele>
        <time>2012-04-15T15:04:32Z</time>
      </trkpt>
      <trkpt lat="47.94831" lon="-2.5432">
        <ele>27.054321289062</ele>
        <time>2012-04-15T15:04:45Z</time>
      </trkpt>
      <trkpt lat="47.94845" lon="-2.5433">
        <ele>26.092895507812</ele>
        <time>2012-04-15T15:06:06Z</time>
      </trkpt>
      <trkpt lat="47.94857" lon="-2.54338">
        <ele>26.092895507812</ele>
        <time>2012-04-15T15:06:19Z</time>
      </trkpt>
      <trkpt lat="47.94901" lon="-2.54366">
        <ele>26.092895507812</ele>
        <time>2012-04-15T15:06:37Z</time>
      </trkpt>
      <trkpt lat="47.9492" lon="-2.54384">
        <ele>26.573608398438</ele>
        <time>2012-04-15T15:08:18Z</time>
      </trkpt>
      <trkpt lat="47.94975" lon="-2.54441">
        <ele>27.534912109375</ele>
        <time>2012-04-15T15:08:40Z</time>
      </trkpt>
      <trkpt lat="47.95028" lon="-2.54501">
        <ele>28.496215820312</ele>
        <time>2012-04-15T15:09:01Z</time>
      </trkpt>
      <trkpt lat="47.95084" lon="-2.54565">
        <ele>28.496215820312</ele>
        <time>2012-04-15T15:09:20Z</time>
      </trkpt>
      <trkpt lat="47.95121" lon="-2.54616">
        <ele>29.45751953125</ele>
        <time>2012-04-15T15:09:37Z</time>
      </trkpt>
      <trkpt lat="47.95164" lon="-2.54685">
        <ele>29.938110351562</ele>
        <time>2012-04-15T15:09:54Z</time>
      </trkpt>
      <trkpt lat="47.95188" lon="-2.5472">
        <ele>30.418823242188</ele>
        <time>2012-04-15T15:10:07Z</time>
      </trkpt>
      <trkpt lat="47.95222" lon="-2.54773">
        <ele>31.380126953125</ele>
        <time>2012-04-15T15:10:23Z</time>
      </trkpt>
      <trkpt lat="47.95256" lon="-2.54841">
        <ele>31.380126953125</ele>
        <time>2012-04-15T15:10:43Z</time>
      </trkpt>
      <trkpt lat="47.95263" lon="-2.5486">
        <ele>32.822265625</ele>
        <time>2012-04-15T15:10:56Z</time>
      </trkpt>
      <trkpt lat="47.95266" lon="-2.54868">
        <ele>33.302856445312</ele>
        <time>2012-04-15T15:11:14Z</time>
      </trkpt>
      <trkpt lat="47.95262" lon="-2.5487">
        <ele>33.302856445312</ele>
        <time>2012-04-15T15:11:28Z</time>
      </trkpt>
      <trkpt lat="47.95266" lon="-2.5487">
        <ele>33.783447265625</ele>
        <time>2012-04-15T15:12:23Z</time>
      </trkpt>
      <trkpt lat="47.95264" lon="-2.5487">
        <ele>33.783447265625</ele>
        <time>2012-04-15T15:14:25Z</time>
      </trkpt>
      <trkpt lat="47.95264" lon="-2.54868">
        <ele>33.783447265625</ele>
        <time>2012-04-15T15:14:27Z</time>
      </trkpt>
      <trkpt lat="47.95268" lon="-2.54875">
        <ele>33.783447265625</ele>
        <time>2012-04-15T15:14:33Z</time>
      </trkpt>
      <trkpt lat="47.9524" lon="-2.5496">
        <ele>31.380126953125</ele>
        <time>2012-04-15T15:14:50Z</time>
      </trkpt>
      <trkpt lat="47.9532" lon="-2.55155">
        <ele>30.418823242188</ele>
        <time>2012-04-15T15:15:23Z</time>
      </trkpt>
      <trkpt lat="47.9528" lon="-2.55245">
        <ele>30.418823242188</ele>
        <time>2012-04-15T15:15:42Z</time>
      </trkpt>
      <trkpt lat="47.95264" lon="-2.5531">
        <ele>29.45751953125</ele>
        <time>2012-04-15T15:16:00Z</time>
      </trkpt>
      <trkpt lat="47.95251" lon="-2.55383">
        <ele>30.418823242188</ele>
        <time>2012-04-15T15:16:15Z</time>
      </trkpt>
      <trkpt lat="47.95239" lon="-2.55458">
        <ele>30.899536132812</ele>
        <time>2012-04-15T15:16:29Z</time>
      </trkpt>
      <trkpt lat="47.95236" lon="-2.55469">
        <ele>30.899536132812</ele>
        <time>2012-04-15T15:16:31Z</time>
      </trkpt>
      <trkpt lat="47.95226" lon="-2.55506">
        <ele>31.860717773438</ele>
        <time>2012-04-15T15:16:38Z</time>
      </trkpt>
      <trkpt lat="47.95216" lon="-2.55545">
        <ele>30.899536132812</ele>
        <time>2012-04-15T15:16:44Z</time>
      </trkpt>
      <trkpt lat="47.95215" lon="-2.55548">
        <ele>31.860717773438</ele>
        <time>2012-04-15T15:16:55Z</time>
      </trkpt>
      <trkpt lat="47.95177" lon="-2.55661">
        <ele>31.860717773438</ele>
        <time>2012-04-15T15:17:06Z</time>
      </trkpt>
      <trkpt lat="47.95176" lon="-2.55679">
        <ele>32.341552734375</ele>
        <time>2012-04-15T15:17:09Z</time>
      </trkpt>
      <trkpt lat="47.95191" lon="-2.55799">
        <ele>31.380126953125</ele>
        <time>2012-04-15T15:17:31Z</time>
      </trkpt>
      <trkpt lat="47.95203" lon="-2.55879">
        <ele>30.899536132812</ele>
        <time>2012-04-15T15:17:45Z</time>
      </trkpt>
      <trkpt lat="47.95214" lon="-2.55955">
        <ele>29.938110351562</ele>
        <time>2012-04-15T15:17:58Z</time>
      </trkpt>
      <trkpt lat="47.95245" lon="-2.56018">
        <ele>30.418823242188</ele>
        <time>2012-04-15T15:18:12Z</time>
      </trkpt>
      <trkpt lat="47.9531" lon="-2.56094">
        <ele>31.380126953125</ele>
        <time>2012-04-15T15:18:35Z</time>
      </trkpt>
      <trkpt lat="47.95326" lon="-2.56125">
        <ele>31.380126953125</ele>
        <time>2012-04-15T15:18:48Z</time>
      </trkpt>
      <trkpt lat="47.95331" lon="-2.56139">
        <ele>31.380126953125</ele>
        <time>2012-04-15T15:19:43Z</time>
      </trkpt>
      <trkpt lat="47.95358" lon="-2.56196">
        <ele>31.380126953125</ele>
        <time>2012-04-15T15:19:58Z</time>
      </trkpt>
      <trkpt lat="47.95364" lon="-2.5621">
        <ele>31.380126953125</ele>
        <time>2012-04-15T15:20:03Z</time>
      </trkpt>
      <trkpt lat="47.95382" lon="-2.56273">
        <ele>31.860717773438</ele>
        <time>2012-04-15T15:20:18Z</time>
      </trkpt>
      <trkpt lat="47.95402" lon="-2.56393">
        <ele>33.302856445312</ele>
        <time>2012-04-15T15:20:41Z</time>
      </trkpt>
      <trkpt lat="47.95421" lon="-2.56488">
        <ele>32.341552734375</ele>
        <time>2012-04-15T15:21:00Z</time>
      </trkpt>
      <trkpt lat="47.95444" lon="-2.56537">
        <ele>32.341552734375</ele>
        <time>2012-04-15T15:21:11Z</time>
      </trkpt>
      <trkpt lat="47.95435" lon="-2.56563">
        <ele>32.341552734375</ele>
        <time>2012-04-15T15:21:19Z</time>
      </trkpt>
      <trkpt lat="47.95397" lon="-2.56555">
        <ele>32.822265625</ele>
        <time>2012-04-15T15:21:30Z</time>
      </trkpt>
      <trkpt lat="47.95296" lon="-2.56588">
        <ele>32.822265625</ele>
        <time>2012-04-15T15:21:55Z</time>
      </trkpt>
      <trkpt lat="47.95233" lon="-2.56624">
        <ele>31.380126953125</ele>
        <time>2012-04-15T15:22:08Z</time>
      </trkpt>
      <trkpt lat="47.9522" lon="-2.56659">
        <ele>30.899536132812</ele>
        <time>2012-04-15T15:22:15Z</time>
      </trkpt>
      <trkpt lat="47.95259" lon="-2.56817">
        <ele>30.418823242188</ele>
        <time>2012-04-15T15:22:39Z</time>
      </trkpt>
      <trkpt lat="47.95286" lon="-2.57016">
        <ele>29.938110351562</ele>
        <time>2012-04-15T15:23:08Z</time>
      </trkpt>
      <trkpt lat="47.95272" lon="-2.57176">
        <ele>30.899536132812</ele>
        <time>2012-04-15T15:23:32Z</time>
      </trkpt>
      <trkpt lat="47.95247" lon="-2.57324">
        <ele>29.45751953125</ele>
        <time>2012-04-15T15:23:55Z</time>
      </trkpt>
      <trkpt lat="47.95246" lon="-2.57328">
        <ele>29.45751953125</ele>
        <time>2012-04-15T15:23:56Z</time>
      </trkpt>
      <trkpt lat="47.95239" lon="-2.57329">
        <ele>29.45751953125</ele>
        <time>2012-04-15T15:24:00Z</time>
      </trkpt>
      <trkpt lat="47.95235" lon="-2.57326">
        <ele>29.938110351562</ele>
        <time>2012-04-15T15:24:16Z</time>
      </trkpt>
      <trkpt lat="47.95234" lon="-2.57326">
        <ele>29.938110351562</ele>
        <time>2012-04-15T15:24:20Z</time>
      </trkpt>
      <trkpt lat="47.95224" lon="-2.57329">
        <ele>29.938110351562</ele>
        <time>2012-04-15T15:24:39Z</time>
      </trkpt>
      <trkpt lat="47.95223" lon="-2.57326">
        <ele>29.938110351562</ele>
        <time>2012-04-15T15:24:43Z</time>
      </trkpt>
      <trkpt lat="47.95214" lon="-2.57329">
        <ele>29.938110351562</ele>
        <time>2012-04-15T15:24:58Z</time>
      </trkpt>
      <trkpt lat="47.95213" lon="-2.57327">
        <ele>31.380126953125</ele>
        <time>2012-04-15T15:25:19Z</time>
      </trkpt>
      <trkpt lat="47.95213" lon="-2.57327">
        <ele>31.380126953125</ele>
        <time>2012-04-15T15:25:51Z</time>
      </trkpt>
    </trkseg>
  </trk>
</gpx>